TimeEDT,TemperatureF,Dew PointF,Humidity,Sea Level PressureIn,VisibilityMPH,Wind Direction,Wind SpeedMPH,Gust SpeedMPH,PrecipitationIn,Events,Conditions,WindDirDegrees,DateUTC
12:53 AM,72.0,64.0,76,30.02,10.0,SW,6.9,-,N/A,,Clear,220,2013-06-24 04:53:00
1:53 AM,71.1,64.0,78,30.01,9.0,SSW,4.6,-,N/A,,Clear,200,2013-06-24 05:53:00
2:53 AM,70.0,64.0,81,30.00,9.0,SW,4.6,-,N/A,,Clear,230,2013-06-24 06:53:00
3:53 AM,71.1,64.0,78,30.00,9.0,SSW,6.9,-,N/A,,Clear,210,2013-06-24 07:53:00
4:53 AM,72.0,64.9,78,30.00,10.0,SW,8.1,-,N/A,,Clear,230,2013-06-24 08:53:00
5:53 AM,71.1,64.9,81,30.01,9.0,SSW,6.9,-,N/A,,Clear,210,2013-06-24 09:53:00
6:53 AM,72.0,64.9,78,30.02,8.0,WSW,8.1,-,N/A,,Partly Cloudy,240,2013-06-24 10:53:00
6:59 AM,71.6,66.2,83,30.04,8.0,SW,8.1,-,N/A,,Mostly Cloudy,230,2013-06-24 10:59:00
7:53 AM,75.0,66.0,73,30.02,9.0,SW,9.2,-,N/A,,Mostly Cloudy,220,2013-06-24 11:53:00
8:53 AM,75.0,66.0,73,30.03,10.0,SSW,10.4,-,N/A,,Mostly Cloudy,210,2013-06-24 12:53:00
9:53 AM,77.0,66.9,71,30.03,10.0,SSW,15.0,-,N/A,,Mostly Cloudy,210,2013-06-24 13:53:00
10:53 AM,79.0,66.9,66,30.03,10.0,SW,13.8,23.0,N/A,,Mostly Cloudy,230,2013-06-24 14:53:00
11:53 AM,79.0,66.9,66,30.03,10.0,SW,17.3,-,N/A,,Mostly Cloudy,220,2013-06-24 15:53:00
12:53 PM,80.1,66.9,64,30.04,10.0,SSW,18.4,26.5,N/A,,Scattered Clouds,210,2013-06-24 16:53:00
1:53 PM,82.0,68.0,62,30.03,10.0,SW,21.9,27.6,N/A,,Scattered Clouds,230,2013-06-24 17:53:00
2:53 PM,84.0,64.9,53,29.99,10.0,SW,13.8,25.3,N/A,,Scattered Clouds,230,2013-06-24 18:53:00
3:53 PM,82.9,64.9,54,29.96,10.0,SW,19.6,26.5,N/A,,Scattered Clouds,230,2013-06-24 19:53:00
4:53 PM,82.9,64.9,54,29.94,10.0,SW,17.3,26.5,N/A,,Scattered Clouds,230,2013-06-24 20:53:00
5:53 PM,82.0,64.9,56,29.92,10.0,SW,18.4,23.0,N/A,,Scattered Clouds,230,2013-06-24 21:53:00
6:53 PM,81.0,63.0,54,29.92,10.0,WSW,15.0,-,N/A,,Scattered Clouds,240,2013-06-24 22:53:00
7:53 PM,79.0,63.0,58,29.93,10.0,SW,10.4,-,N/A,,Partly Cloudy,220,2013-06-24 23:53:00
8:53 PM,75.0,63.0,66,29.94,10.0,SSW,11.5,-,N/A,,Scattered Clouds,210,2013-06-25 00:53:00
9:53 PM,73.0,63.0,71,29.95,10.0,SW,6.9,-,N/A,,Partly Cloudy,220,2013-06-25 01:53:00
10:53 PM,73.0,62.1,68,29.95,10.0,SW,10.4,-,N/A,,Partly Cloudy,220,2013-06-25 02:53:00
11:53 PM,72.0,62.1,71,29.94,10.0,SW,9.2,-,N/A,,Clear,220,2013-06-25 03:53:00